createdAt,value
2023-03-29T00:01:34.855Z,125.48
2023-03-29T00:04:42.496Z,122.94
2023-03-29T00:07:54.585Z,127.64
2023-03-29T00:11:04.093Z,147.11
2023-03-29T00:14:11.723Z,154.97
2023-03-29T00:17:17.879Z,174.36
2023-03-29T00:20:24.772Z,176.67
2023-03-29T00:23:31.025Z,189.74
2023-03-29T00:26:40.449Z,192.90
2023-03-29T00:29:46.582Z,192.67
2023-03-29T00:32:53.701Z,199.23
2023-03-29T00:35:59.804Z,221.24
2023-03-29T00:39:06.930Z,279.42
2023-03-29T00:42:20.463Z,270.80
2023-03-29T00:45:36.279Z,278.54
2023-03-29T00:48:42.356Z,259.66
2023-03-29T00:51:50.322Z,282.76
2023-03-29T00:55:02.892Z,259.77
2023-03-29T00:58:19.928Z,242.97
2023-03-29T01:01:35.817Z,248.11
2023-03-29T01:04:50.713Z,274.91
2023-03-29T01:08:07.049Z,260.55
2023-03-29T01:11:22.528Z,265.87
2023-03-29T01:14:42.097Z,282.12
2023-03-29T01:17:52.037Z,308.73
2023-03-29T01:21:24.333Z,315.18
2023-03-29T01:25:02.849Z,306.70
2023-03-29T01:28:22.648Z,301.80
2023-03-29T01:31:36.174Z,310.46
2023-03-29T01:34:55.054Z,303.82
2023-03-29T01:38:11.766Z,334.39
2023-03-29T01:41:18.185Z,319.48
2023-03-29T01:44:45.681Z,294.68
2023-03-29T01:48:05.708Z,262.77
2023-03-29T01:51:21.621Z,260.87
2023-03-29T01:54:38.881Z,265.15
2023-03-29T01:57:50.429Z,272.93
2023-03-29T02:01:05.972Z,265.76
2023-03-29T02:04:20.087Z,268.39
2023-03-29T02:07:37.644Z,270.58
2023-03-29T02:10:45.612Z,267.33
2023-03-29T02:13:51.877Z,260.74
2023-03-29T02:17:19.384Z,252.70
2023-03-29T02:20:37.236Z,246.86
2023-03-29T02:23:49.686Z,244.87
2023-03-29T02:26:56.130Z,246.73
2023-03-29T02:30:08.851Z,241.97
2023-03-29T02:33:26.040Z,246.38
2023-03-29T02:36:43.630Z,240.04
2023-03-29T02:39:54.706Z,247.36
2023-03-29T02:43:04.551Z,247.91
2023-03-29T02:46:13.980Z,250.19
2023-03-29T02:49:23.929Z,246.65
2023-03-29T02:52:39.600Z,244.02
2023-03-29T02:55:47.225Z,241.50
2023-03-29T02:58:53.312Z,249.23
2023-03-29T03:02:00.515Z,259.60
2023-03-29T03:05:11.758Z,258.83
2023-03-29T03:08:19.057Z,258.86
2023-03-29T03:11:26.289Z,265.17
2023-03-29T03:14:33.126Z,255.15
2023-03-29T03:17:41.297Z,261.43
2023-03-29T03:20:59.586Z,287.72
2023-03-29T03:24:10.457Z,295.97
2023-03-29T03:27:19.239Z,298.88
2023-03-29T03:30:25.983Z,331.55
2023-03-29T03:33:51.556Z,350.34
2023-03-29T03:37:29.547Z,369.18
2023-03-29T03:40:36.552Z,374.96
2023-03-29T03:43:46.336Z,370.36
2023-03-29T03:47:00.382Z,384.08
2023-03-29T03:50:15.815Z,378.11
2023-03-29T03:53:27.541Z,366.35
2023-03-29T03:56:53.856Z,353.15
2023-03-29T04:00:19.558Z,354.38
2023-03-29T04:03:39.393Z,363.58
2023-03-29T04:06:48.569Z,396.07
2023-03-29T04:10:16.804Z,448.75
2023-03-29T04:13:31.773Z,525.11
2023-03-29T04:16:51.469Z,594.98
2023-03-29T04:20:24.726Z,610.76
2023-03-29T04:23:39.182Z,666.54
2023-03-29T04:26:50.279Z,724.75
2023-03-29T04:30:05.186Z,832.90
2023-03-29T04:33:32.433Z,1032.63
2023-03-29T04:36:40.617Z,978.27
2023-03-29T04:39:55.763Z,896.91
2023-03-29T04:43:05.018Z,672.45
2023-03-29T04:46:13.477Z,528.18
2023-03-29T04:49:40.323Z,465.67
2023-03-29T04:52:52.395Z,394.02
2023-03-29T04:55:59.801Z,350.21
2023-03-29T04:59:35.417Z,329.82
2023-03-29T05:02:48.527Z,298.88
2023-03-29T05:06:15.463Z,294.96
2023-03-29T05:09:28.389Z,272.55
2023-03-29T05:12:41.746Z,244.93
2023-03-29T05:15:50.540Z,245.51
2023-03-29T05:18:57.450Z,234.45
2023-03-29T05:22:05.188Z,233.71
2023-03-29T05:25:14.463Z,236.39
2023-03-29T05:28:23.617Z,249.12
2023-03-29T05:31:33.130Z,220.79
2023-03-29T05:34:39.608Z,207.85
2023-03-29T05:37:47.644Z,180.96
2023-03-29T05:40:56.684Z,168.84
2023-03-29T05:44:10.927Z,161.56
2023-03-29T05:47:24.113Z,156.96
2023-03-29T05:50:32.313Z,173.39
2023-03-29T05:53:41.520Z,169.58
2023-03-29T05:56:48.495Z,171.95
2023-03-29T05:59:58.944Z,165.32
2023-03-29T06:03:19.922Z,175.25
2023-03-29T06:06:27.007Z,200.20
2023-03-29T06:09:34.243Z,205.89
2023-03-29T06:12:43.324Z,209.08
2023-03-29T06:15:50.317Z,204.11
2023-03-29T06:19:08.441Z,214.33
2023-03-29T06:22:17.506Z,232.68
2023-03-29T06:25:23.655Z,198.89
2023-03-29T06:28:31.234Z,165.62
2023-03-29T06:31:39.062Z,164.88
2023-03-29T06:34:51.189Z,167.61
2023-03-29T06:38:25.144Z,188.61
2023-03-29T06:41:50.555Z,181.04
2023-03-29T06:45:41.822Z,197.03
2023-03-29T06:48:58.879Z,202.08
2023-03-29T06:52:29.369Z,182.04
2023-03-29T06:55:36.406Z,182.47
2023-03-29T06:59:08.807Z,171.74
2023-03-29T07:02:23.492Z,175.93
2023-03-29T07:05:41.060Z,142.28
2023-03-29T07:09:00.129Z,120.30
2023-03-29T07:12:25.400Z,103.92
2023-03-29T07:15:37.070Z,103.34
2023-03-29T07:18:59.220Z,102.71
2023-03-29T07:22:49.461Z,104.66
2023-03-29T07:25:58.555Z,107.86
2023-03-29T07:29:13.560Z,90.77
2023-03-29T07:32:19.648Z,91.63
2023-03-29T07:35:36.461Z,90.29
2023-03-29T07:38:49.462Z,73.54
2023-03-29T07:42:10.323Z,79.64
2023-03-29T07:45:26.900Z,78.74
2023-03-29T07:48:46.477Z,73.30
2023-03-29T07:51:54.329Z,69.34
2023-03-29T07:55:02.542Z,72.58
2023-03-29T07:58:36.187Z,85.33
2023-03-29T08:01:50.436Z,100.41
2023-03-29T08:05:29.165Z,96.86
2023-03-29T08:08:50.477Z,103.63
2023-03-29T08:11:57.887Z,106.80
2023-03-29T08:15:19.750Z,107.35
2023-03-29T08:18:26.569Z,96.41
2023-03-29T08:21:33.791Z,95.07
2023-03-29T08:24:42.806Z,108.88
2023-03-29T08:27:50.115Z,99.25
2023-03-29T08:31:11.435Z,99.66
2023-03-29T08:34:21.703Z,101.20
2023-03-29T08:37:39.534Z,108.16
2023-03-29T08:40:46.977Z,101.11
2023-03-29T08:44:20.889Z,82.48
2023-03-29T08:47:55.558Z,80.27
2023-03-29T08:51:09.945Z,86.43
2023-03-29T08:54:29.020Z,79.92
2023-03-29T08:58:11.469Z,82.16
2023-03-29T09:01:19.128Z,90.20
2023-03-29T09:04:42.817Z,99.72
2023-03-29T09:08:02.167Z,75.66
2023-03-29T09:11:42.149Z,72.99
2023-03-29T09:15:15.628Z,53.37
2023-03-29T09:18:51.858Z,47.75
2023-03-29T09:22:22.757Z,44.82
2023-03-29T09:25:53.446Z,52.45
2023-03-29T09:29:36.646Z,47.13
2023-03-29T09:32:56.247Z,58.86
2023-03-29T09:36:21.840Z,61.78
2023-03-29T09:39:36.523Z,60.72
2023-03-29T09:42:57.737Z,57.61
2023-03-29T09:46:16.420Z,49.27
2023-03-29T09:49:34.689Z,46.55
2023-03-29T09:52:41.238Z,42.61
2023-03-29T09:55:59.463Z,41.87
2023-03-29T09:59:16.325Z,53.37
2023-03-29T10:02:28.286Z,58.80
2023-03-29T10:05:40.354Z,44.20
2023-03-29T10:09:01.766Z,35.29
2023-03-29T10:12:20.818Z,40.15
2023-03-29T10:15:33.154Z,43.04
2023-03-29T10:18:47.544Z,44.65
2023-03-29T10:21:55.921Z,53.41
2023-03-29T10:25:02.481Z,46.27
2023-03-29T10:28:21.405Z,39.69
2023-03-29T10:31:31.690Z,46.04
2023-03-29T10:34:39.393Z,47.16
2023-03-29T10:37:52.338Z,38.83
2023-03-29T10:41:09.459Z,54.61
2023-03-29T10:44:36.055Z,67.04
2023-03-29T10:47:51.489Z,107.83
2023-03-29T10:51:03.724Z,57.06
2023-03-29T10:54:20.730Z,49.14
2023-03-29T10:57:44.403Z,45.54
2023-03-29T11:01:00.179Z,51.80
2023-03-29T11:04:32.435Z,48.46
2023-03-29T11:07:59.461Z,48.60
2023-03-29T11:11:32.140Z,44.82
2023-03-29T11:15:03.860Z,41.06
2023-03-29T11:18:52.305Z,46.78
2023-03-29T11:22:16.914Z,45.84
2023-03-29T11:25:44.006Z,45.88
2023-03-29T11:29:01.035Z,57.09
2023-03-29T11:32:29.323Z,56.74
2023-03-29T11:35:52.235Z,41.22
2023-03-29T11:39:19.549Z,46.84
2023-03-29T11:42:47.858Z,37.11
2023-03-29T11:46:03.457Z,39.14
2023-03-29T11:49:28.565Z,36.88
2023-03-29T11:52:53.755Z,42.01
2023-03-29T11:56:16.682Z,40.58
2023-03-29T11:59:36.076Z,41.48
2023-03-29T12:02:53.206Z,39.63
2023-03-29T12:06:10.058Z,34.55
2023-03-29T12:09:34.828Z,36.92
2023-03-29T12:12:53.160Z,39.43
2023-03-29T12:16:14.637Z,39.16
2023-03-29T12:19:32.031Z,42.72
2023-03-29T12:22:41.707Z,57.84
2023-03-29T12:26:07.018Z,40.00
2023-03-29T12:29:48.760Z,42.25
2023-03-29T12:33:27.877Z,41.90
2023-03-29T12:37:12.253Z,45.62
2023-03-29T12:40:46.754Z,38.47
2023-03-29T12:44:23.762Z,40.32
2023-03-29T12:47:44.436Z,53.20
2023-03-29T12:51:01.132Z,59.10
2023-03-29T12:54:16.455Z,52.83
2023-03-29T12:57:30.175Z,43.25
2023-03-29T13:00:50.680Z,37.83
2023-03-29T13:04:17.217Z,34.46
2023-03-29T13:07:36.857Z,36.95
2023-03-29T13:10:46.031Z,34.39
2023-03-29T13:13:55.818Z,35.67
2023-03-29T13:17:18.487Z,40.40
2023-03-29T13:20:48.506Z,40.10
2023-03-29T13:24:14.058Z,38.72
2023-03-29T13:27:39.992Z,40.44
2023-03-29T13:31:02.928Z,47.39
2023-03-29T13:34:35.002Z,50.80
2023-03-29T13:38:01.082Z,43.60
2023-03-29T13:41:10.141Z,38.79
2023-03-29T13:44:44.717Z,36.53
2023-03-29T13:48:04.238Z,37.55
2023-03-29T13:51:36.628Z,37.87
2023-03-29T13:54:53.225Z,40.45
2023-03-29T13:58:07.603Z,45.98
2023-03-29T14:01:28.450Z,36.85
2023-03-29T14:04:47.515Z,44.17
2023-03-29T14:07:58.953Z,37.03
2023-03-29T14:11:11.349Z,34.08
2023-03-29T14:14:18.347Z,34.50
2023-03-29T14:17:28.005Z,32.65
2023-03-29T14:20:37.997Z,40.74
2023-03-29T14:24:08.451Z,42.41
2023-03-29T14:27:16.525Z,90.07
2023-03-29T14:30:30.934Z,64.28
2023-03-29T14:33:38.406Z,46.16
2023-03-29T14:36:49.368Z,36.82
2023-03-29T14:39:59.757Z,42.21
2023-03-29T14:43:17.683Z,46.49
2023-03-29T14:46:25.996Z,53.56
2023-03-29T14:49:35.067Z,53.54
2023-03-29T14:52:41.696Z,64.44
2023-03-29T14:56:01.945Z,65.57
2023-03-29T14:59:38.454Z,58.99
2023-03-29T15:02:53.660Z,65.90
2023-03-29T15:06:11.547Z,99.24
2023-03-29T15:09:31.199Z,108.21
2023-03-29T15:12:46.743Z,86.17
2023-03-29T15:16:00.343Z,58.40
2023-03-29T15:19:09.619Z,76.53
2023-03-29T15:22:16.471Z,93.17
2023-03-29T15:25:24.522Z,60.09
2023-03-29T15:28:36.842Z,68.62
2023-03-29T15:31:46.523Z,53.29
2023-03-29T15:35:05.242Z,57.85
2023-03-29T15:38:15.626Z,67.38
2023-03-29T15:41:23.473Z,55.15
2023-03-29T15:44:37.496Z,55.26
2023-03-29T15:47:45.470Z,51.63
2023-03-29T15:50:53.450Z,50.43
2023-03-29T15:54:03.940Z,75.76
2023-03-29T15:57:24.199Z,61.87
2023-03-29T16:00:34.176Z,57.09
2023-03-29T16:03:40.510Z,67.66
2023-03-29T16:07:06.734Z,72.65
2023-03-29T16:10:13.679Z,63.08
2023-03-29T16:13:20.668Z,82.40
2023-03-29T16:16:36.112Z,141.99
2023-03-29T16:19:42.980Z,100.35
2023-03-29T16:22:50.373Z,92.57
2023-03-29T16:25:59.367Z,126.54
2023-03-29T16:29:05.444Z,169.53
2023-03-29T16:32:15.667Z,163.13
2023-03-29T16:35:29.819Z,187.20
2023-03-29T16:38:36.824Z,206.93
2023-03-29T16:41:45.553Z,156.61
2023-03-29T16:44:52.575Z,188.31
2023-03-29T16:48:02.041Z,284.97
2023-03-29T16:51:10.303Z,260.07
2023-03-29T16:54:26.036Z,390.61
2023-03-29T16:57:38.100Z,353.64
2023-03-29T17:00:47.965Z,254.00
2023-03-29T17:03:58.139Z,140.37
2023-03-29T17:07:08.433Z,112.94
2023-03-29T17:10:16.805Z,120.67
2023-03-29T17:13:30.004Z,174.66
2023-03-29T17:16:36.994Z,193.13
2023-03-29T17:19:45.958Z,172.45
2023-03-29T17:22:59.875Z,168.04
2023-03-29T17:26:10.116Z,139.44
2023-03-29T17:29:27.390Z,108.98
2023-03-29T17:32:33.562Z,125.15
2023-03-29T17:35:45.487Z,137.25
2023-03-29T17:38:51.555Z,125.24
2023-03-29T17:42:04.641Z,115.78
2023-03-29T17:45:13.371Z,110.53
2023-03-29T17:48:20.499Z,127.00
2023-03-29T17:51:37.372Z,160.89
2023-03-29T17:54:50.708Z,117.98
2023-03-29T17:57:57.589Z,128.01
2023-03-29T18:01:14.996Z,132.47
2023-03-29T18:04:21.490Z,150.52
2023-03-29T18:07:31.135Z,176.17
2023-03-29T18:10:37.264Z,181.95
2023-03-29T18:13:44.508Z,182.03
2023-03-29T18:16:50.784Z,194.80
2023-03-29T18:20:21.042Z,176.25
2023-03-29T18:23:34.076Z,169.72
2023-03-29T18:26:43.265Z,166.90
2023-03-29T18:29:49.403Z,145.70
2023-03-29T18:32:56.320Z,132.72
2023-03-29T18:36:03.083Z,160.80
2023-03-29T18:39:14.506Z,171.20
2023-03-29T18:42:22.135Z,153.55
2023-03-29T18:45:29.049Z,122.40
2023-03-29T18:48:42.259Z,109.12
2023-03-29T18:51:50.329Z,128.52
2023-03-29T18:54:59.065Z,164.05
2023-03-29T18:58:25.851Z,166.19
2023-03-29T19:01:31.929Z,156.66
2023-03-29T19:04:38.854Z,163.45
2023-03-29T19:07:44.986Z,165.08
2023-03-29T19:10:54.614Z,179.34
2023-03-29T19:14:00.953Z,181.55
2023-03-29T19:17:11.010Z,199.01
2023-03-29T19:20:18.020Z,341.77
2023-03-29T19:23:30.750Z,305.06
2023-03-29T19:26:39.572Z,301.67
2023-03-29T19:29:46.589Z,344.54
2023-03-29T19:32:53.668Z,383.88
2023-03-29T19:36:08.599Z,383.90
2023-03-29T19:39:15.105Z,372.57
2023-03-29T19:42:24.748Z,360.28
2023-03-29T19:45:31.328Z,341.31
2023-03-29T19:48:38.472Z,306.28
2023-03-29T19:51:44.794Z,269.26
2023-03-29T19:54:51.747Z,269.09
2023-03-29T19:58:09.346Z,262.27
2023-03-29T20:01:21.048Z,219.49
2023-03-29T20:04:36.227Z,262.16
2023-03-29T20:07:43.178Z,263.89
2023-03-29T20:10:49.254Z,288.93
2023-03-29T20:13:58.791Z,286.07
2023-03-29T20:17:11.597Z,285.23
2023-03-29T20:20:19.566Z,286.03
2023-03-29T20:23:25.666Z,276.38
2023-03-29T20:26:32.582Z,315.84
2023-03-29T20:29:44.194Z,329.39
2023-03-29T20:32:53.332Z,334.00
2023-03-29T20:35:59.428Z,336.26
2023-03-29T20:39:08.238Z,253.38
2023-03-29T20:42:20.752Z,217.75
2023-03-29T20:45:51.611Z,194.12
2023-03-29T20:48:58.638Z,184.53
2023-03-29T20:52:06.487Z,191.82
2023-03-29T20:55:19.586Z,192.22
2023-03-29T20:58:31.081Z,212.78
2023-03-29T21:01:41.342Z,232.89
2023-03-29T21:04:52.990Z,235.65
2023-03-29T21:08:01.189Z,250.84
2023-03-29T21:11:21.663Z,279.33
2023-03-29T21:14:32.430Z,298.69
2023-03-29T21:17:51.404Z,301.01
2023-03-29T21:20:59.828Z,287.31
2023-03-29T21:24:13.761Z,307.67
2023-03-29T21:27:19.981Z,291.05
2023-03-29T21:30:27.360Z,273.75
2023-03-29T21:33:38.625Z,252.91
2023-03-29T21:36:45.600Z,224.64
2023-03-29T21:39:51.824Z,201.55
2023-03-29T21:42:58.738Z,219.12
2023-03-29T21:46:04.729Z,227.05
2023-03-29T21:49:14.709Z,223.67
2023-03-29T21:52:21.877Z,233.12
2023-03-29T21:55:28.671Z,221.40
2023-03-29T21:58:34.765Z,236.61
2023-03-29T22:01:51.988Z,241.10
2023-03-29T22:05:00.772Z,257.22
2023-03-29T22:08:10.627Z,262.19
2023-03-29T22:11:19.539Z,262.75
2023-03-29T22:14:26.482Z,238.68
2023-03-29T22:17:32.507Z,203.29
2023-03-29T22:20:42.472Z,184.31
2023-03-29T22:23:52.586Z,198.65
2023-03-29T22:26:59.517Z,220.00
2023-03-29T22:30:06.140Z,195.30
2023-03-29T22:33:13.023Z,180.73
2023-03-29T22:36:25.461Z,140.67
2023-03-29T22:39:32.982Z,116.89
2023-03-29T22:42:45.286Z,107.76
2023-03-29T22:45:52.356Z,101.26
2023-03-29T22:48:59.101Z,95.86
2023-03-29T22:52:10.777Z,94.02
2023-03-29T22:55:17.074Z,88.73
2023-03-29T22:58:32.160Z,92.44
2023-03-29T23:01:38.272Z,88.28
2023-03-29T23:04:49.942Z,77.63
2023-03-29T23:07:58.865Z,83.58
2023-03-29T23:11:07.589Z,82.63
2023-03-29T23:14:15.169Z,80.38
2023-03-29T23:17:22.860Z,79.56
2023-03-29T23:20:29.398Z,73.84
2023-03-29T23:23:39.136Z,72.28
2023-03-29T23:26:45.838Z,73.06
2023-03-29T23:29:52.715Z,70.59
2023-03-29T23:33:00.413Z,66.43
2023-03-29T23:36:11.374Z,67.72
2023-03-29T23:39:25.883Z,67.73
2023-03-29T23:42:33.287Z,65.69
2023-03-29T23:45:40.995Z,67.91
2023-03-29T23:48:49.678Z,64.88
2023-03-29T23:51:56.329Z,65.88
2023-03-29T23:55:11.457Z,66.71
2023-03-29T23:58:19.370Z,63.86
